Time;durP1;ratioP1;P1;durP2;ratioP2;P2;SDS_P1;SDS_P2;PMS_P1;PMS_P2;Temp;Humidity;BMP_temperature;BMP_pressure;BME280_temperature;BME280_humidity;BME280_pressure;Samples;Min_cycle;Max_cycle;Signal;HPM_P1;HPM_P2
2022/08/12 00:44:51;;;;;;;;;;;;;;;22.60;66.93;99889.94;5074264;28;19962;-81
2022/08/12 00:47:18;;;;;;;;;;;;;;;22.52;68.28;99897.06;5056362;28;20225;-82
2022/08/12 00:49:48;;;;;;;;;;;;;;;22.39;69.16;99888.56;5055915;28;20014;-81
2022/08/12 00:52:15;;;;;;;;;;;;;;;22.25;69.08;99886.91;5056071;28;20323;-81
2022/08/12 00:54:45;;;;;;;;;;;;;;;22.21;69.17;99883.41;5056178;28;19939;-81
2022/08/12 00:57:31;;;;;;;;;;;;;;;22.06;69.98;99874.50;5055540;28;19955;-81
2022/08/12 01:00:01;;;;;;;;;;;;;;;22.10;70.42;99871.56;5055240;28;19924;-81
2022/08/12 01:02:30;;;;;;;;;;;;;;;22.15;70.20;99871.03;5056037;28;20393;-81
2022/08/12 01:13:20;;;;;;;;;;;;;;;22.34;68.40;99866.44;5072748;28;19927;-81
2022/08/12 01:15:52;;;;;;;;;;;;;;;22.32;68.82;99863.25;5056045;28;20412;-81
2022/08/12 01:18:25;;;;;;;;;;;;;;;22.26;67.52;99863.00;5055811;28;20006;-81
2022/08/12 01:20:50;;;;;;;;;;;;;;;22.16;67.78;99862.09;5056479;28;20019;-81
2022/08/12 01:23:16;;;;;;;;;;;;;;;22.24;67.15;99876.84;5072301;28;20279;-81
2022/08/12 01:25:46;;;;;;;;;;;;;;;22.29;68.24;99869.81;5074289;28;19982;-81
2022/08/12 01:28:16;;;;;;;;;;;;;;;22.30;67.10;99871.41;5056053;28;19920;-81
2022/08/12 01:30:42;;;;;;;;;;;;;;;22.23;67.61;99859.03;5055810;28;20015;-81
2022/08/12 01:33:14;;;;;;;;;;;;;;;22.28;66.49;99863.38;5056700;28;19916;-81
2022/08/12 01:35:47;;;;;;;;;;;;;;;22.19;66.89;99861.19;5059562;28;19917;-81
2022/08/12 01:38:14;;;;;;;;;;;;;;;22.16;67.20;99864.94;5078093;28;19959;-81
2022/08/12 01:40:44;;;;;;;;;;;;;;;22.22;68.06;99871.63;5077185;28;19917;-81
2022/08/12 01:43:14;;;;;;;;;;;;;;;22.31;67.44;99868.13;5059572;28;19916;-82
2022/08/12 01:45:47;;;;;;;;;;;;;;;22.35;67.19;99868.81;5059210;28;20007;-81
2022/08/12 01:48:38;;;;;;;;;;;;;;;22.41;66.34;99867.00;5059242;28;20003;-81
2022/08/12 01:51:12;;;;;;;;;;;;;;;22.42;66.48;99862.91;5035980;28;20015;-82
2022/08/12 01:53:45;;;;;;;;;;;;;;;22.32;66.67;99857.56;5077627;28;19917;-81
2022/08/12 01:56:14;;;;;;;;;;;;;;;22.25;66.79;99866.28;5075924;28;19917;-81
2022/08/12 02:01:29;;;;;;;;;;;;;;;22.36;66.99;99861.88;5057753;28;20019;-81
2022/08/12 02:12:53;;;;;;;;;;;;;;;22.39;65.61;99846.03;5057258;28;20437;-81
2022/08/12 02:15:24;;;;;;;;;;;;;;;22.45;64.50;99847.84;5057189;28;19943;-81
2022/08/12 02:17:52;;;;;;;;;;;;;;;22.56;64.94;99856.00;5056788;28;19923;-81
2022/08/12 02:20:22;;;;;;;;;;;;;;;22.52;64.84;99852.50;5072195;28;20462;-81
2022/08/12 02:22:49;;;;;;;;;;;;;;;22.55;64.73;99847.97;5057006;28;19916;-81
2022/08/12 02:25:21;;;;;;;;;;;;;;;22.51;63.51;99841.63;5055237;28;20020;-81
2022/08/12 02:27:48;;;;;;;;;;;;;;;22.55;62.89;99842.31;5056618;28;19927;-81
2022/08/12 02:30:15;;;;;;;;;;;;;;;22.52;62.61;99837.53;5055599;28;20345;-81
2022/08/12 02:32:45;;;;;;;;;;;;;;;22.45;63.00;99830.06;5072511;28;20280;-81
2022/08/12 02:35:19;;;;;;;;;;;;;;;22.51;62.64;99833.13;5055508;28;19921;-81
2022/08/12 02:37:46;;;;;;;;;;;;;;;22.77;60.89;99825.41;5055153;28;19917;-82
2022/08/12 02:40:16;;;;;;;;;;;;;;;22.56;61.49;99826.88;5055077;28;19952;-81
2022/08/12 02:43:05;;;;;;;;;;;;;;;22.47;61.86;99825.50;5055396;28;19917;-81
2022/08/12 02:45:39;;;;;;;;;;;;;;;22.52;62.77;99823.34;5035663;28;19924;-81
2022/08/12 02:48:09;;;;;;;;;;;;;;;22.37;62.42;99803.16;5056408;28;19928;-81
2022/08/12 02:50:41;;;;;;;;;;;;;;;22.60;61.97;99824.72;5054980;28;19917;-81
2022/08/12 02:53:09;;;;;;;;;;;;;;;22.65;62.04;99829.84;5056215;28;19921;-81
2022/08/12 02:55:35;;;;;;;;;;;;;;;22.63;61.63;99835.16;5072090;28;19925;-81
2022/08/12 02:58:08;;;;;;;;;;;;;;;22.65;62.09;99827.78;5054831;28;20418;-81
2022/08/12 03:00:34;;;;;;;;;;;;;;;22.72;61.35;99833.22;5055419;28;19917;-81
2022/08/12 03:03:07;;;;;;;;;;;;;;;22.79;61.37;99839.91;5054678;28;19920;-81
2022/08/12 03:05:35;;;;;;;;;;;;;;;22.96;60.77;99833.69;5054588;28;20000;-81
2022/08/12 03:08:03;;;;;;;;;;;;;;;22.95;61.75;99834.91;5054997;28;19966;-80
2022/08/12 03:10:31;;;;;;;;;;;;;;;22.91;61.29;99836.31;5071575;28;20362;-81
2022/08/12 03:12:57;;;;;;;;;;;;;;;22.91;61.37;99837.09;5056182;28;19916;-81
2022/08/12 03:15:23;;;;;;;;;;;;;;;22.90;61.16;99834.69;5055830;28;19917;-81
2022/08/12 03:17:58;;;;;;;;;;;;;;;22.85;61.62;99824.72;5054948;28;19967;-81
2022/08/12 03:20:23;;;;;;;;;;;;;;;22.94;61.90;99829.72;5054894;28;19970;-81
2022/08/12 03:22:49;;;;;;;;;;;;;;;22.80;62.36;99825.28;5054318;28;20321;-81
2022/08/12 03:25:16;;;;;;;;;;;;;;;22.72;62.43;99821.09;5055546;28;19928;-81
2022/08/12 03:27:48;;;;;;;;;;;;;;;22.60;62.89;99819.84;5056165;28;20263;-81
2022/08/12 03:30:15;;;;;;;;;;;;;;;22.54;63.07;99816.00;5054760;28;20324;-80
2022/08/12 03:32:43;;;;;;;;;;;;;;;22.51;63.24;99813.25;5055497;28;19916;-81
2022/08/12 03:35:12;;;;;;;;;;;;;;;22.43;64.39;99809.88;5071385;28;19917;-81
2022/08/12 03:37:38;;;;;;;;;;;;;;;22.47;64.26;99807.69;5055385;28;20015;-81
2022/08/12 03:40:07;;;;;;;;;;;;;;;22.57;63.32;99808.63;5054899;28;20011;-81
2022/08/12 03:42:39;;;;;;;;;;;;;;;22.58;62.96;99808.16;5055499;28;19917;-81
2022/08/12 04:01:51;;;;;;;;;;;;;;;21.44;68.19;99805.88;5074974;28;19923;-82
2022/08/12 04:04:16;;;;;;;;;;;;;;;21.53;69.37;99808.06;5056829;28;19951;-81
2022/08/12 04:06:45;;;;;;;;;;;;;;;21.50;69.91;99808.94;5056705;28;19963;-81
2022/08/12 04:09:14;;;;;;;;;;;;;;;21.46;69.71;99803.38;5056784;28;20069;-81
2022/08/12 04:14:25;;;;;;;;;;;;;;;21.48;68.12;99794.47;5075189;28;20050;-81
2022/08/12 04:16:50;;;;;;;;;;;;;;;21.57;67.06;99786.91;5056669;28;19924;-81
2022/08/12 04:19:16;;;;;;;;;;;;;;;21.62;66.91;99792.00;5074065;28;19917;-81
2022/08/12 04:21:42;;;;;;;;;;;;;;;21.74;66.37;99789.69;5074457;28;19939;-81
2022/08/12 04:24:08;;;;;;;;;;;;;;;21.81;66.73;99790.25;5056442;28;19917;-80
2022/08/12 04:26:38;;;;;;;;;;;;;;;21.94;66.01;99784.59;5056574;28;19958;-81
2022/08/12 04:29:04;;;;;;;;;;;;;;;22.10;65.35;99780.91;5056897;28;19917;-81
2022/08/12 04:31:33;;;;;;;;;;;;;;;22.24;64.74;99777.66;5056262;28;20322;-81
2022/08/12 04:33:59;;;;;;;;;;;;;;;22.39;64.30;99778.81;5074101;28;20389;-81
2022/08/12 04:36:24;;;;;;;;;;;;;;;22.61;63.59;99772.44;5056629;28;19920;-81
2022/08/12 04:38:52;;;;;;;;;;;;;;;22.93;61.68;99777.84;5056313;28;20244;-81
2022/08/12 04:41:20;;;;;;;;;;;;;;;23.45;60.14;99790.63;5056308;28;19982;-81
2022/08/12 04:43:46;;;;;;;;;;;;;;;23.68;59.76;99783.72;5055606;28;20412;-81
2022/08/12 04:46:17;;;;;;;;;;;;;;;23.70;58.24;99800.31;5073949;28;19916;-81
2022/08/12 04:48:42;;;;;;;;;;;;;;;23.50;58.71;99803.44;5056538;28;19916;-80
2022/08/12 04:51:07;;;;;;;;;;;;;;;23.33;60.33;99807.69;5074276;28;19916;-81
2022/08/12 04:53:35;;;;;;;;;;;;;;;23.27;60.43;99801.81;5055891;28;19916;-81
2022/08/12 04:56:01;;;;;;;;;;;;;;;23.40;59.69;99810.31;5056438;28;20384;-81
2022/08/12 04:58:26;;;;;;;;;;;;;;;23.53;59.28;99806.13;5052321;28;19956;-81
2022/08/12 05:00:52;;;;;;;;;;;;;;;23.73;58.07;99793.72;5053050;28;19916;-81
2022/08/12 05:03:17;;;;;;;;;;;;;;;23.50;55.17;99797.78;5052817;28;19921;-81
2022/08/12 05:05:43;;;;;;;;;;;;;;;23.54;56.28;99795.56;5052936;28;19917;-81
2022/08/12 05:08:15;;;;;;;;;;;;;;;23.58;55.77;99798.28;5053142;28;20278;-81
2022/08/12 05:10:45;;;;;;;;;;;;;;;23.70;56.12;99801.13;5052695;28;19923;-80
2022/08/12 05:13:23;;;;;;;;;;;;;;;23.79;55.79;99808.91;5053879;28;19923;-81
2022/08/12 05:15:50;;;;;;;;;;;;;;;24.00;55.56;99812.97;5053562;28;19916;-81
2022/08/12 05:18:16;;;;;;;;;;;;;;;24.34;53.81;99817.75;5053469;28;19917;-81
2022/08/12 05:20:42;;;;;;;;;;;;;;;24.62;54.00;99818.69;5052494;28;19917;-81
2022/08/12 05:23:18;;;;;;;;;;;;;;;24.63;54.45;99825.19;5053047;28;19971;-80
2022/08/12 05:25:45;;;;;;;;;;;;;;;24.69;54.32;99826.16;5052056;28;19917;-81
2022/08/12 05:28:11;;;;;;;;;;;;;;;24.73;54.48;99835.34;5052007;28;19923;-81
2022/08/12 05:30:39;;;;;;;;;;;;;;;24.76;53.52;99837.22;5052126;28;20348;-81
2022/08/12 05:33:05;;;;;;;;;;;;;;;24.79;53.05;99844.84;5052313;28;19917;-80
2022/08/12 05:35:35;;;;;;;;;;;;;;;24.73;52.54;99838.97;5052192;28;19917;-80
2022/08/12 05:40:47;;;;;;;;;;;;;;;24.65;51.80;99845.41;5053347;28;19977;-80
2022/08/12 05:43:12;;;;;;;;;;;;;;;24.90;51.61;99845.19;5053660;28;19923;-81
2022/08/12 05:45:40;;;;;;;;;;;;;;;24.94;50.23;99848.69;5053215;28;20286;-80
2022/08/12 05:48:06;;;;;;;;;;;;;;;24.72;50.52;99856.50;5053333;28;19916;-80
2022/08/12 05:50:31;;;;;;;;;;;;;;;24.67;51.37;99862.81;5052988;28;20012;-80
2022/08/12 05:52:57;;;;;;;;;;;;;;;24.68;51.51;99867.25;5052224;28;20355;-80
2022/08/12 05:55:26;;;;;;;;;;;;;;;24.72;52.61;99862.19;5052351;28;19917;-81
2022/08/12 05:57:55;;;;;;;;;;;;;;;24.74;52.93;99871.84;5051876;28;19921;-80
2022/08/12 06:00:24;;;;;;;;;;;;;;;24.80;52.04;99875.66;5053168;28;19975;-81
2022/08/12 06:02:59;;;;;;;;;;;;;;;25.10;52.27;99872.47;5054199;28;19925;-80
2022/08/12 06:05:28;;;;;;;;;;;;;;;25.25;51.02;99870.63;5053329;28;20006;-81
2022/08/12 06:08:01;;;;;;;;;;;;;;;25.96;49.64;99876.06;5052289;28;20367;-80
2022/08/12 06:10:27;;;;;;;;;;;;;;;25.79;50.04;99875.59;5053222;28;19963;-80
2022/08/12 06:12:57;;;;;;;;;;;;;;;25.88;49.57;99874.00;5052459;28;19917;-80
2022/08/12 06:15:23;;;;;;;;;;;;;;;26.28;48.63;99868.09;5068702;28;19917;-80
2022/08/12 06:17:49;;;;;;;;;;;;;;;26.62;47.05;99867.69;5051964;28;19924;-80
2022/08/12 06:20:15;;;;;;;;;;;;;;;26.89;47.22;99883.13;5053221;28;19920;-80
2022/08/12 06:22:44;;;;;;;;;;;;;;;26.93;47.13;99880.09;5055809;28;20015;-80
2022/08/12 06:25:12;;;;;;;;;;;;;;;27.52;45.13;99877.56;5055773;28;20279;-81
2022/08/12 06:27:42;;;;;;;;;;;;;;;28.01;45.33;99871.28;5056071;28;19916;-80
2022/08/12 06:30:10;;;;;;;;;;;;;;;28.51;43.57;99867.81;5055677;28;19939;-81
2022/08/12 06:32:39;;;;;;;;;;;;;;;28.73;43.30;99861.66;5072008;28;19916;-81
2022/08/12 06:35:05;;;;;;;;;;;;;;;29.29;41.34;99863.28;5057286;28;19917;-81
2022/08/12 06:37:37;;;;;;;;;;;;;;;29.79;40.58;99873.84;5055358;28;19924;-81
2022/08/12 06:40:03;;;;;;;;;;;;;;;30.31;39.85;99879.63;5056390;28;19924;-80
2022/08/12 06:45:13;;;;;;;;;;;;;;;30.91;37.38;99880.69;5056432;28;19940;-81
2022/08/12 06:47:39;;;;;;;;;;;;;;;30.06;38.68;99878.31;5055757;28;20003;-81
2022/08/12 06:50:04;;;;;;;;;;;;;;;29.29;39.86;99879.69;5054820;28;19924;-81
2022/08/12 06:52:31;;;;;;;;;;;;;;;28.77;40.91;99890.88;5055285;28;19916;-80
2022/08/12 06:54:59;;;;;;;;;;;;;;;28.45;42.02;99890.59;5054851;28;19920;-81
2022/08/12 06:57:28;;;;;;;;;;;;;;;28.09;43.44;99888.88;5054439;28;19956;-81
2022/08/12 06:59:53;;;;;;;;;;;;;;;28.12;43.96;99891.50;5054763;28;19978;-81
2022/08/12 07:02:21;;;;;;;;;;;;;;;27.39;46.35;99894.94;5055415;28;19964;-81
2022/08/12 07:04:49;;;;;;;;;;;;;;;27.09;47.89;99889.06;5055964;28;19921;-81
2022/08/12 07:07:15;;;;;;;;;;;;;;;27.06;48.03;99906.34;5054804;28;20252;-81
2022/08/12 07:09:44;;;;;;;;;;;;;;;26.71;49.49;99909.69;5054595;28;20011;-81
2022/08/12 07:12:17;;;;;;;;;;;;;;;26.82;48.44;99897.75;5054555;28;19920;-81
2022/08/12 07:14:50;;;;;;;;;;;;;;;26.96;48.47;99899.13;5055977;28;19917;-80
2022/08/12 07:17:17;;;;;;;;;;;;;;;26.82;47.97;99892.81;5054214;28;19928;-81
2022/08/12 07:19:43;;;;;;;;;;;;;;;27.49;46.52;99893.59;5055318;28;20017;-81
2022/08/12 07:22:14;;;;;;;;;;;;;;;27.72;45.47;99900.59;5054233;28;20027;-81
2022/08/12 07:24:39;;;;;;;;;;;;;;;27.64;45.74;99894.44;5054798;28;19917;-81
2022/08/12 07:27:07;;;;;;;;;;;;;;;27.61;46.10;99895.41;5054171;28;19927;-80
2022/08/12 07:29:33;;;;;;;;;;;;;;;27.73;45.95;99887.09;5054161;28;20374;-80
2022/08/12 07:31:58;;;;;;;;;;;;;;;29.36;43.48;99876.41;5053524;28;19984;-80
2022/08/12 07:34:25;;;;;;;;;;;;;;;30.04;40.88;99880.88;5055059;28;19917;-81
2022/08/12 07:36:52;;;;;;;;;;;;;;;30.81;38.78;99873.56;5070295;28;19923;-81
2022/08/12 07:39:18;;;;;;;;;;;;;;;31.21;38.39;99876.19;5054639;28;20277;-81
2022/08/12 07:41:43;;;;;;;;;;;;;;;31.41;36.50;99880.25;5054255;28;19932;-81
2022/08/12 07:44:12;;;;;;;;;;;;;;;31.52;36.82;99880.28;5053635;28;20411;-81
2022/08/12 07:46:39;;;;;;;;;;;;;;;31.52;35.62;99888.91;5055551;28;19917;-81
2022/08/12 07:49:06;;;;;;;;;;;;;;;31.47;35.65;99892.56;5053751;28;19917;-81
2022/08/12 07:51:35;;;;;;;;;;;;;;;31.21;36.08;99886.88;5054789;28;19917;-81
2022/08/12 07:54:02;;;;;;;;;;;;;;;31.07;36.40;99885.78;5070326;28;19925;-80
2022/08/12 07:56:27;;;;;;;;;;;;;;;31.13;36.67;99894.44;5053499;28;20011;-81
2022/08/12 07:58:53;;;;;;;;;;;;;;;31.10;37.84;99895.44;5053647;28;20008;-81
2022/08/12 08:01:20;;;;;;;;;;;;;;;31.19;37.93;99898.13;5054979;28;20352;-80
2022/08/12 08:06:34;;;;;;;;;;;;;;;30.13;39.97;99907.38;5054580;28;19924;-80
2022/08/12 08:09:01;;;;;;;;;;;;;;;29.97;39.82;99899.34;5053811;28;19963;-81
2022/08/12 08:14:13;;;;;;;;;;;;;;;30.85;38.41;99894.25;5055088;28;19966;-81
2022/08/12 08:16:42;;;;;;;;;;;;;;;31.99;37.50;99892.28;5054754;28;20372;-80
2022/08/12 08:19:18;;;;;;;;;;;;;;;31.91;38.00;99894.09;5053207;28;19916;-80
2022/08/12 08:21:45;;;;;;;;;;;;;;;32.66;37.09;99906.81;5054089;28;19917;-80
2022/08/12 08:24:13;;;;;;;;;;;;;;;32.95;35.55;99904.72;5053150;28;19986;-80
2022/08/12 08:26:38;;;;;;;;;;;;;;;32.99;35.54;99902.38;5052850;28;19961;-80
2022/08/12 08:29:04;;;;;;;;;;;;;;;33.26;35.50;99910.16;5052996;28;19917;-80
2022/08/12 08:31:29;;;;;;;;;;;;;;;33.52;35.12;99903.31;5052909;28;19948;-80
2022/08/12 08:33:54;;;;;;;;;;;;;;;33.67;34.18;99906.69;5052888;28;20026;-81
2022/08/12 08:36:48;;;;;;;;;;;;;;;33.76;34.05;99908.47;5053436;28;19916;-80
2022/08/12 08:39:20;;;;;;;;;;;;;;;32.98;35.83;99909.44;5054441;28;19917;-80
2022/08/12 08:44:30;;;;;;;;;;;;;;;33.44;32.92;99910.94;5054124;28;19924;-81
2022/08/12 08:46:55;;;;;;;;;;;;;;;33.03;29.85;99905.78;5069457;28;20372;-80
2022/08/12 08:49:21;;;;;;;;;;;;;;;32.95;31.98;99905.50;5054352;28;20019;-80
2022/08/12 08:51:48;;;;;;;;;;;;;;;32.99;33.65;99911.00;5052593;28;19924;-80
2022/08/12 08:54:16;;;;;;;;;;;;;;;33.25;34.02;99908.59;5054500;28;19988;-80
2022/08/12 08:56:49;;;;;;;;;;;;;;;34.08;31.42;99911.75;5052796;28;19917;-80
2022/08/12 08:59:15;;;;;;;;;;;;;;;33.35;31.43;99909.13;5052777;28;19943;-80
2022/08/12 09:01:40;;;;;;;;;;;;;;;33.52;33.03;99906.22;5053353;28;19924;-80
2022/08/12 09:04:07;;;;;;;;;;;;;;;33.21;33.29;99902.31;5053152;28;20318;-80
2022/08/12 09:06:32;;;;;;;;;;;;;;;32.76;33.14;99899.47;5052826;28;19916;-80
2022/08/12 09:08:58;;;;;;;;;;;;;;;32.04;34.33;99891.50;5052934;28;20324;-80
2022/08/12 09:14:08;;;;;;;;;;;;;;;32.32;34.79;99888.66;5054490;28;19923;-80
2022/08/12 09:16:37;;;;;;;;;;;;;;;33.14;34.30;99888.47;5052510;28;19917;-80
2022/08/12 09:19:03;;;;;;;;;;;;;;;33.31;33.96;99892.06;5052435;28;20367;-80
2022/08/12 09:21:31;;;;;;;;;;;;;;;33.51;32.95;99887.34;5053530;28;19917;-80
2022/08/12 09:24:00;;;;;;;;;;;;;;;33.56;32.79;99883.66;5052370;28;19928;-80
2022/08/12 09:26:28;;;;;;;;;;;;;;;34.10;31.72;99869.50;5052766;28;20417;-80
2022/08/12 09:28:57;;;;;;;;;;;;;;;34.48;30.53;99874.78;5069369;28;19925;-79
2022/08/12 09:31:23;;;;;;;;;;;;;;;34.23;32.34;99865.97;5053730;28;19951;-80
2022/08/12 09:33:49;;;;;;;;;;;;;;;33.76;33.56;99862.28;5069092;28;19948;-80
2022/08/12 09:36:15;;;;;;;;;;;;;;;32.96;35.33;99866.72;5053555;28;19917;-81
2022/08/12 09:38:41;;;;;;;;;;;;;;;33.67;34.46;99848.97;5052368;28;19923;-80
2022/08/12 09:41:06;;;;;;;;;;;;;;;34.13;34.20;99845.31;5052496;28;19917;-80
2022/08/12 09:46:16;;;;;;;;;;;;;;;35.24;31.87;99842.00;5053105;28;19927;-80
2022/08/12 09:48:43;;;;;;;;;;;;;;;34.78;32.66;99834.31;5051801;28;19917;-80
2022/08/12 09:51:08;;;;;;;;;;;;;;;33.52;33.93;99831.22;5051774;28;19920;-81
2022/08/12 09:53:34;;;;;;;;;;;;;;;33.30;33.63;99843.59;5068578;28;19924;-80
2022/08/12 09:56:01;;;;;;;;;;;;;;;33.59;33.99;99837.22;5055691;28;19924;-80
2022/08/12 09:58:30;;;;;;;;;;;;;;;33.88;32.91;99838.63;5070990;28;19965;-80
2022/08/12 10:00:56;;;;;;;;;;;;;;;34.81;31.67;99839.78;5059648;28;19920;-81
2022/08/12 10:03:25;;;;;;;;;;;;;;;35.84;30.43;99850.47;5059354;28;19924;-80
2022/08/12 10:05:52;;;;;;;;;;;;;;;35.48;30.94;99843.31;5075644;28;20280;-80
2022/08/12 10:08:20;;;;;;;;;;;;;;;34.52;32.54;99849.28;5059529;28;20313;-81
2022/08/12 10:13:41;;;;;;;;;;;;;;;34.44;32.24;99851.13;5076725;28;20393;-80
2022/08/12 10:16:10;;;;;;;;;;;;;;;34.29;32.38;99843.63;5059340;28;19916;-81
2022/08/12 10:18:36;;;;;;;;;;;;;;;34.69;31.58;99844.13;5075885;28;19925;-80
2022/08/12 10:21:09;;;;;;;;;;;;;;;35.08;31.04;99840.06;5076792;28;19917;-81
2022/08/12 10:23:35;;;;;;;;;;;;;;;34.59;31.67;99851.56;5076530;28;19916;-80
2022/08/12 10:31:28;;;;;;;;;;;;;;;32.24;39.75;99859.63;5077535;28;19985;-80
2022/08/12 10:33:53;;;;;;;;;;;;;;;31.91;39.59;99853.81;5058945;28;20351;-80
2022/08/12 10:36:19;;;;;;;;;;;;;;;32.06;41.24;99860.09;5059165;28;20007;-81
2022/08/12 10:38:46;;;;;;;;;;;;;;;31.80;41.16;99863.97;5075824;28;19920;-81
2022/08/12 10:43:55;;;;;;;;;;;;;;;30.68;45.15;99857.53;5077191;28;19974;-81
2022/08/12 10:46:24;;;;;;;;;;;;;;;30.80;46.66;99861.31;5059426;28;20296;-81
2022/08/12 10:48:52;;;;;;;;;;;;;;;30.99;48.57;99865.34;5075704;28;19920;-82
2022/08/12 10:51:18;;;;;;;;;;;;;;;31.09;47.96;99877.41;5059407;28;19969;-81
2022/08/12 10:53:49;;;;;;;;;;;;;;;30.97;49.66;99872.91;5058750;28;20324;-80
2022/08/12 10:56:18;;;;;;;;;;;;;;;30.94;50.91;99871.03;5058932;28;19981;-79
2022/08/12 10:58:44;;;;;;;;;;;;;;;31.04;51.77;99869.53;5058050;28;19920;-79
2022/08/12 11:01:09;;;;;;;;;;;;;;;31.12;47.87;99864.91;5076755;28;19916;-80
2022/08/12 11:03:41;;;;;;;;;;;;;;;31.61;45.02;99862.81;5058679;28;20410;-80
2022/08/12 11:06:07;;;;;;;;;;;;;;;32.05;44.67;99862.19;5058324;28;19923;-80
2022/08/12 11:08:36;;;;;;;;;;;;;;;32.16;44.80;99855.69;5076761;28;20386;-80
2022/08/12 11:11:03;;;;;;;;;;;;;;;32.17;43.80;99848.59;5076360;28;19966;-81
2022/08/12 11:13:28;;;;;;;;;;;;;;;31.96;40.41;99838.63;5058885;28;19917;-81
2022/08/12 11:15:56;;;;;;;;;;;;;;;32.42;39.87;99837.41;5058332;28;19917;-81
2022/08/12 11:18:23;;;;;;;;;;;;;;;32.66;37.67;99823.28;5059153;28;20233;-81
2022/08/12 11:20:49;;;;;;;;;;;;;;;32.30;37.53;99822.22;5076281;28;19963;-81
2022/08/12 11:23:15;;;;;;;;;;;;;;;32.71;38.12;99799.44;5058352;28;19927;-82
2022/08/12 11:25:46;;;;;;;;;;;;;;;32.16;38.64;99795.25;5058129;28;20382;-82
2022/08/12 11:28:13;;;;;;;;;;;;;;;32.66;39.67;99794.47;5075828;28;20007;-81
2022/08/12 11:30:38;;;;;;;;;;;;;;;32.72;40.39;99806.00;5058045;28;19917;-82
2022/08/12 11:33:06;;;;;;;;;;;;;;;33.18;37.15;99831.31;5058016;28;19966;-82
2022/08/12 11:35:31;;;;;;;;;;;;;;;33.43;38.26;99835.19;5058133;28;19917;-81
2022/08/12 11:37:59;;;;;;;;;;;;;;;33.11;37.40;99831.84;5058021;28;19924;-82
2022/08/12 11:40:24;;;;;;;;;;;;;;;33.49;37.08;99827.28;5075545;28;19917;-81
2022/08/12 11:42:50;;;;;;;;;;;;;;;33.08;37.37;99809.88;5057762;28;19939;-81
2022/08/12 11:45:17;;;;;;;;;;;;;;;33.10;38.39;99795.72;5074236;28;20445;-81
2022/08/12 11:47:43;;;;;;;;;;;;;;;32.73;38.57;99793.94;5057655;28;20355;-81
2022/08/12 11:50:08;;;;;;;;;;;;;;;31.58;41.75;99797.72;5057463;28;19916;-81
2022/08/12 11:52:34;;;;;;;;;;;;;;;31.46;41.77;99810.50;5057483;28;19967;-81
2022/08/12 11:54:59;;;;;;;;;;;;;;;31.12;42.45;99806.66;5058054;28;19916;-81
2022/08/12 11:57:24;;;;;;;;;;;;;;;30.84;43.91;99815.09;5075191;28;19924;-80
2022/08/12 11:59:50;;;;;;;;;;;;;;;30.28;44.27;99821.19;5057702;28;20322;-80
2022/08/12 12:02:17;;;;;;;;;;;;;;;30.05;44.93;99831.63;5057613;28;19921;-80
2022/08/12 12:04:45;;;;;;;;;;;;;;;30.04;44.92;99832.91;5056979;28;19916;-81
2022/08/12 12:07:10;;;;;;;;;;;;;;;29.74;45.53;99836.00;5056720;28;19924;-80
2022/08/12 12:09:36;;;;;;;;;;;;;;;29.56;46.14;99833.44;5057198;28;19916;-81
2022/08/12 12:12:03;;;;;;;;;;;;;;;29.25;46.88;99827.56;5057386;28;19917;-81
2022/08/12 12:14:55;;;;;;;;;;;;;;;29.07;47.46;99825.72;5056976;28;20393;-81
2022/08/12 12:17:24;;;;;;;;;;;;;;;28.89;47.86;99830.41;5073439;28;20306;-81
2022/08/12 12:19:53;;;;;;;;;;;;;;;28.57;49.16;99832.25;5074676;28;19959;-81
2022/08/12 12:22:18;;;;;;;;;;;;;;;28.52;49.20;99832.97;5056847;28;19916;-80
2022/08/12 12:24:46;;;;;;;;;;;;;;;28.42;49.47;99834.34;5057306;28;19923;-81
2022/08/12 12:27:14;;;;;;;;;;;;;;;28.37;49.70;99835.81;5056677;28;20015;-81
2022/08/12 12:29:39;;;;;;;;;;;;;;;28.34;49.99;99816.81;5073217;28;20410;-81
2022/08/12 12:32:05;;;;;;;;;;;;;;;28.20;50.01;99821.22;5056962;28;19998;-80
2022/08/12 12:34:30;;;;;;;;;;;;;;;28.22;49.67;99832.16;5056640;28;19916;-80
2022/08/12 12:36:55;;;;;;;;;;;;;;;28.31;49.35;99819.81;5057211;28;19927;-80
2022/08/12 12:39:21;;;;;;;;;;;;;;;28.35;49.58;99811.88;5056736;28;19999;-80
2022/08/12 12:41:46;;;;;;;;;;;;;;;28.36;50.30;99804.84;5074619;28;19916;-80
2022/08/12 12:44:12;;;;;;;;;;;;;;;28.49;49.54;99811.03;5073214;28;20383;-80
2022/08/12 12:46:39;;;;;;;;;;;;;;;28.51;49.32;99811.34;5056556;28;19923;-80
2022/08/12 12:49:12;;;;;;;;;;;;;;;28.38;49.57;99819.44;5056472;28;19923;-80
2022/08/12 12:51:38;;;;;;;;;;;;;;;28.47;49.17;99827.94;5056411;28;19970;-80
2022/08/12 12:54:03;;;;;;;;;;;;;;;28.49;48.71;99831.06;5056652;28;19920;-80
2022/08/12 12:56:30;;;;;;;;;;;;;;;28.78;48.46;99835.19;5056658;28;20252;-80
2022/08/12 12:59:06;;;;;;;;;;;;;;;29.11;47.81;99835.69;5055765;28;19968;-81
2022/08/12 13:01:37;;;;;;;;;;;;;;;29.51;46.58;99828.41;5056804;28;19917;-80
2022/08/12 13:04:06;;;;;;;;;;;;;;;29.38;47.19;99819.38;5056526;28;20338;-80
2022/08/12 13:06:32;;;;;;;;;;;;;;;29.27;47.35;99825.75;5074483;28;20343;-80
2022/08/12 13:09:00;;;;;;;;;;;;;;;29.06;47.84;99827.81;5056328;28;19924;-80
2022/08/12 13:11:28;;;;;;;;;;;;;;;28.84;48.36;99833.19;5056092;28;19921;-80
2022/08/12 13:13:55;;;;;;;;;;;;;;;28.61;49.57;99832.84;5074304;28;19924;-80
2022/08/12 13:16:21;;;;;;;;;;;;;;;28.61;50.15;99827.13;5056690;28;20378;-80
2022/08/12 13:18:47;;;;;;;;;;;;;;;28.64;50.60;99834.72;5074090;28;19917;-80
2022/08/12 13:21:16;;;;;;;;;;;;;;;28.54;49.50;99826.72;5055832;28;19917;-80
2022/08/12 13:23:44;;;;;;;;;;;;;;;28.86;49.67;99828.53;5056084;28;19916;-80
2022/08/12 13:26:10;;;;;;;;;;;;;;;28.80;50.76;99821.16;5056284;28;19916;-81
2022/08/12 13:28:35;;;;;;;;;;;;;;;28.82;51.11;99830.06;5056037;28;20252;-80
2022/08/12 13:31:03;;;;;;;;;;;;;;;28.77;51.87;99825.03;5055546;28;20420;-80
2022/08/12 13:33:31;;;;;;;;;;;;;;;29.00;51.69;99818.34;5074053;28;19916;-81
2022/08/12 13:35:59;;;;;;;;;;;;;;;29.26;50.56;99820.53;5056515;28;19968;-80
2022/08/12 13:38:40;;;;;;;;;;;;;;;29.43;50.40;99815.78;5055778;28;19920;-80
2022/08/12 13:43:55;;;;;;;;;;;;;;;29.92;48.87;99823.41;5073810;28;19932;-80
2022/08/12 13:46:21;;;;;;;;;;;;;;;29.97;47.94;99830.50;5055601;28;19917;-80
2022/08/12 13:48:47;;;;;;;;;;;;;;;30.00;48.52;99818.03;5072612;28;19924;-80
2022/08/12 13:51:15;;;;;;;;;;;;;;;29.95;49.21;99827.38;5055848;28;20301;-80
2022/08/12 13:53:40;;;;;;;;;;;;;;;29.79;49.17;99831.63;5055795;28;20367;-80
2022/08/12 13:56:09;;;;;;;;;;;;;;;29.82;48.65;99822.00;5072617;28;19916;-80
2022/08/12 13:58:36;;;;;;;;;;;;;;;29.80;48.45;99815.22;5055640;28;19963;-80
2022/08/12 14:01:04;;;;;;;;;;;;;;;29.81;47.87;99811.03;5055899;28;20406;-80
2022/08/12 14:03:31;;;;;;;;;;;;;;;29.85;48.05;99815.25;5055421;28;19917;-80
2022/08/12 14:05:59;;;;;;;;;;;;;;;29.80;47.77;99810.25;5072819;28;19916;-80
2022/08/12 14:08:27;;;;;;;;;;;;;;;29.81;48.11;99813.91;5056254;28;20271;-80
2022/08/12 14:10:54;;;;;;;;;;;;;;;29.90;47.56;99813.75;5056120;28;19956;-80
2022/08/12 14:13:26;;;;;;;;;;;;;;;30.16;45.26;99808.03;5056114;28;19924;-80
2022/08/12 14:15:53;;;;;;;;;;;;;;;30.34;43.92;99815.50;5055687;28;19982;-80
2022/08/12 14:18:32;;;;;;;;;;;;;;;29.58;43.06;99802.19;5055725;28;20015;-81
2022/08/12 14:21:04;;;;;;;;;;;;;;;29.62;44.66;99805.63;5055368;28;19916;-80
2022/08/12 14:23:33;;;;;;;;;;;;;;;30.54;40.83;99809.66;5073390;28;19917;-81
2022/08/12 14:26:00;;;;;;;;;;;;;;;29.76;42.75;99806.81;5073623;28;19923;-80
2022/08/12 14:28:26;;;;;;;;;;;;;;;29.98;41.96;99809.13;5056060;28;20373;-81
2022/08/12 14:30:55;;;;;;;;;;;;;;;29.61;42.71;99820.44;5055603;28;20287;-80
2022/08/12 14:33:21;;;;;;;;;;;;;;;29.05;44.08;99816.88;5055573;28;20286;-80
2022/08/12 14:35:49;;;;;;;;;;;;;;;28.94;44.81;99814.63;5073196;28;19921;-80
2022/08/12 14:38:15;;;;;;;;;;;;;;;28.39;46.51;99815.28;5055812;28;20354;-80
2022/08/12 14:40:45;;;;;;;;;;;;;;;28.09;46.81;99825.94;5055579;28;19917;-80
2022/08/12 14:43:12;;;;;;;;;;;;;;;28.04;46.13;99830.28;5059433;28;20007;-80
2022/08/12 14:45:38;;;;;;;;;;;;;;;27.90;45.27;99834.69;5058799;28;19917;-80
2022/08/12 14:48:05;;;;;;;;;;;;;;;28.29;44.74;99833.84;5059098;28;19924;-80